createdAt,value
2019-04-14T00:00:18.984Z,1.39
2019-04-14T00:03:06.607Z,1.32
2019-04-14T00:05:35.921Z,1.39
2019-04-14T00:08:06.673Z,1.31
2019-04-14T00:10:35.420Z,1.30
2019-04-14T00:13:04.619Z,1.25
2019-04-14T00:15:39.669Z,1.19
2019-04-14T00:18:05.353Z,1.23
2019-04-14T00:20:33.766Z,1.17
2019-04-14T00:23:02.219Z,1.10
2019-04-14T00:25:32.384Z,1.04
2019-04-14T00:28:00.921Z,1.06
2019-04-14T00:30:29.511Z,0.98
2019-04-14T00:32:59.609Z,0.92
2019-04-14T00:35:30.257Z,0.92
2019-04-14T00:38:06.359Z,0.89
2019-04-14T00:43:33.095Z,0.87
2019-04-14T00:46:04.350Z,0.82
2019-04-14T00:48:34.092Z,0.81
2019-04-14T00:51:02.801Z,0.73
2019-04-14T00:53:31.693Z,0.70
2019-04-14T00:56:02.018Z,0.67
2019-04-14T00:58:29.970Z,0.63
2019-04-14T01:00:58.671Z,0.64
2019-04-14T01:03:27.266Z,0.66
2019-04-14T01:05:56.766Z,0.62
2019-04-14T01:08:25.189Z,0.70
2019-04-14T01:10:54.034Z,0.64
2019-04-14T01:13:22.401Z,0.64
2019-04-14T01:15:59.600Z,0.58
2019-04-14T01:18:21.267Z,0.65
2019-04-14T01:20:51.330Z,0.55
2019-04-14T01:23:19.731Z,0.51
2019-04-14T01:25:48.014Z,0.49
2019-04-14T01:28:17.943Z,0.54
2019-04-14T01:30:46.293Z,0.43
2019-04-14T01:33:14.552Z,0.33
2019-04-14T01:35:44.341Z,0.27
2019-04-14T01:38:13.006Z,0.33
2019-04-14T01:40:42.407Z,0.37
2019-04-14T01:43:10.720Z,0.47
2019-04-14T01:45:40.250Z,0.39
2019-04-14T01:48:08.684Z,0.33
2019-04-14T01:50:41.188Z,0.37
2019-04-14T01:53:20.762Z,0.35
2019-04-14T01:56:03.528Z,0.33
2019-04-14T01:58:33.913Z,0.23
2019-04-14T02:01:06.520Z,0.25
2019-04-14T02:03:34.767Z,0.22
2019-04-14T02:06:03.046Z,0.17
2019-04-14T02:08:31.298Z,0.07
2019-04-14T02:11:00.798Z,0.00
2019-04-14T02:13:29.217Z,-0.01
2019-04-14T02:15:57.506Z,0.04
2019-04-14T02:18:25.767Z,0.12
2019-04-14T02:20:54.045Z,-0.05
2019-04-14T02:23:23.528Z,0.12
2019-04-14T02:25:51.972Z,-0.02
2019-04-14T02:28:20.233Z,0.01
2019-04-14T02:31:00.239Z,-0.01
2019-04-14T02:33:48.559Z,-0.11
2019-04-14T02:36:28.016Z,-0.09
2019-04-14T02:38:49.340Z,-0.07
2019-04-14T02:41:20.088Z,-0.24
2019-04-14T02:43:52.344Z,-0.25
2019-04-14T02:46:10.054Z,-0.20
2019-04-14T02:51:23.600Z,-0.29
2019-04-14T02:53:53.895Z,-0.33
2019-04-14T02:56:34.371Z,-0.46
2019-04-14T03:01:29.554Z,-0.40
2019-04-14T03:03:46.206Z,-0.25
2019-04-14T03:06:12.609Z,-0.56
2019-04-14T03:08:50.850Z,-0.42
2019-04-14T03:11:20.684Z,-0.51
2019-04-14T03:16:23.595Z,-0.69
2019-04-14T03:23:56.292Z,-0.74
2019-04-14T03:26:40.348Z,-0.86
2019-04-14T03:29:17.014Z,-0.70
2019-04-14T03:32:02.507Z,-0.67
2019-04-14T03:34:32.674Z,-0.84
2019-04-14T03:39:19.285Z,-0.94
2019-04-14T03:41:51.027Z,-0.98
2019-04-14T03:44:21.296Z,-0.91
2019-04-14T03:49:17.951Z,-0.80
2019-04-14T03:51:57.807Z,-1.03
2019-04-14T03:54:07.921Z,-0.87
2019-04-14T03:56:46.320Z,-0.93
2019-04-14T03:59:15.463Z,-0.99
2019-04-14T04:01:43.834Z,-1.06
2019-04-14T04:04:12.172Z,-1.05
2019-04-14T04:06:40.450Z,-1.21
2019-04-14T04:09:10.486Z,-1.19
2019-04-14T04:11:39.081Z,-1.22
2019-04-14T04:14:07.549Z,-1.06
2019-04-14T04:16:48.388Z,-1.05
2019-04-14T04:19:27.573Z,-0.96
2019-04-14T04:21:57.502Z,-1.03
2019-04-14T04:24:37.031Z,-1.04
2019-04-14T04:27:26.484Z,-1.01
2019-04-14T04:30:08.492Z,-0.98
2019-04-14T04:32:53.735Z,-1.05
2019-04-14T04:35:32.729Z,-0.90
2019-04-14T04:38:09.514Z,-1.05
2019-04-14T04:40:39.632Z,-1.06
2019-04-14T04:43:10.085Z,-1.08
2019-04-14T04:45:40.818Z,-1.13
2019-04-14T04:48:09.178Z,-1.03
2019-04-14T04:50:37.452Z,-1.03
2019-04-14T04:53:06.963Z,-0.99
2019-04-14T04:55:37.310Z,-0.84
2019-04-14T04:58:05.634Z,-0.75
2019-04-14T05:00:35.038Z,-0.79
2019-04-14T05:03:03.700Z,-0.84
2019-04-14T05:06:04.602Z,-0.81
2019-04-14T05:08:34.822Z,-0.66
2019-04-14T05:11:05.442Z,-0.67
2019-04-14T05:13:35.949Z,-0.61
2019-04-14T05:16:04.300Z,-0.52
2019-04-14T05:18:33.585Z,-0.41
2019-04-14T05:21:06.041Z,-0.27
2019-04-14T05:23:34.413Z,-0.25
2019-04-14T05:26:02.837Z,-0.16
2019-04-14T05:28:31.134Z,-0.13
2019-04-14T05:30:59.404Z,-0.13
2019-04-14T05:33:27.679Z,0.06
2019-04-14T05:35:55.939Z,0.18
2019-04-14T05:38:24.221Z,0.27
2019-04-14T05:40:52.478Z,0.25
2019-04-14T05:43:30.229Z,0.25
2019-04-14T05:45:50.374Z,0.16
2019-04-14T05:48:18.660Z,0.27
2019-04-14T05:50:46.958Z,0.54
2019-04-14T05:53:15.415Z,0.60
2019-04-14T05:55:43.877Z,0.53
2019-04-14T05:58:12.247Z,0.42
2019-04-14T06:00:42.263Z,0.31
2019-04-14T06:03:12.348Z,0.43
2019-04-14T06:05:40.652Z,0.28
2019-04-14T06:08:08.943Z,0.21
2019-04-14T06:10:37.971Z,0.21
2019-04-14T06:13:06.250Z,0.12
2019-04-14T06:15:35.072Z,0.06
2019-04-14T06:18:03.330Z,0.07
2019-04-14T06:20:31.881Z,0.11
2019-04-14T06:23:00.135Z,0.07
2019-04-14T06:25:28.507Z,0.15
2019-04-14T06:27:56.878Z,0.13
2019-04-14T06:30:29.785Z,0.20
2019-04-14T06:32:59.687Z,0.27
2019-04-14T06:35:32.329Z,0.29
2019-04-14T06:38:09.071Z,0.41
2019-04-14T06:40:39.560Z,0.60
2019-04-14T06:43:07.821Z,0.63
2019-04-14T06:45:36.106Z,0.68
2019-04-14T06:48:04.358Z,0.81
2019-04-14T06:50:32.634Z,0.78
2019-04-14T06:53:01.465Z,0.74
2019-04-14T06:55:30.580Z,0.84
2019-04-14T06:57:58.790Z,1.06
2019-04-14T07:00:27.065Z,1.10
2019-04-14T07:02:55.895Z,1.21
2019-04-14T07:05:24.169Z,1.43
2019-04-14T07:07:57.278Z,1.49
2019-04-14T07:10:22.617Z,1.30
2019-04-14T07:12:50.875Z,1.23
2019-04-14T07:15:19.154Z,1.23
2019-04-14T07:17:47.416Z,1.41
2019-04-14T07:20:16.275Z,1.33
2019-04-14T07:22:44.517Z,1.44
2019-04-14T07:25:14.040Z,1.51
2019-04-14T07:27:42.296Z,1.75
2019-04-14T07:30:28.765Z,1.94
2019-04-14T07:33:07.494Z,1.95
2019-04-14T07:35:42.328Z,2.04
2019-04-14T07:38:29.705Z,2.17
2019-04-14T07:41:14.715Z,2.30
2019-04-14T07:43:53.622Z,2.33
2019-04-14T07:46:29.688Z,2.55
2019-04-14T07:49:08.906Z,2.60
2019-04-14T07:51:47.847Z,2.78
2019-04-14T07:54:17.766Z,3.02
2019-04-14T07:56:50.546Z,3.04
2019-04-14T07:59:20.599Z,3.34
2019-04-14T08:01:50.520Z,3.42
2019-04-14T08:04:20.424Z,3.42
2019-04-14T08:06:50.290Z,3.58
2019-04-14T08:09:18.721Z,3.63
2019-04-14T08:11:47.010Z,3.73
2019-04-14T08:14:15.258Z,3.88
2019-04-14T08:16:43.533Z,4.12
2019-04-14T08:19:11.959Z,4.16
2019-04-14T08:21:40.237Z,4.22
2019-04-14T08:24:08.493Z,4.40
2019-04-14T08:26:36.774Z,4.73
2019-04-14T08:29:05.204Z,4.78
2019-04-14T08:31:33.752Z,4.69
2019-04-14T08:34:02.074Z,4.82
2019-04-14T08:36:33.204Z,4.89
2019-04-14T08:39:00.385Z,5.02
2019-04-14T08:41:30.265Z,5.18
2019-04-14T08:44:16.411Z,5.07
2019-04-14T08:46:49.388Z,4.93
2019-04-14T08:49:19.282Z,5.02
2019-04-14T08:51:51.964Z,5.02
2019-04-14T08:54:34.009Z,5.07
2019-04-14T08:57:12.734Z,5.06
2019-04-14T08:59:45.590Z,5.28
2019-04-14T09:02:27.634Z,5.75
2019-04-14T09:05:03.683Z,5.95
2019-04-14T09:07:36.269Z,6.19
2019-04-14T09:10:11.164Z,6.21
2019-04-14T09:12:41.625Z,6.37
2019-04-14T09:15:10.449Z,6.58
2019-04-14T09:17:38.734Z,6.60
2019-04-14T09:20:07.778Z,6.58
2019-04-14T09:22:36.059Z,6.55
2019-04-14T09:25:05.217Z,6.40
2019-04-14T09:27:33.497Z,6.12
2019-04-14T09:30:01.760Z,5.91
2019-04-14T09:32:30.972Z,5.88
2019-04-14T09:34:59.231Z,5.81
2019-04-14T09:37:27.511Z,5.74
2019-04-14T09:39:55.770Z,5.56
2019-04-14T09:42:24.317Z,5.52
2019-04-14T09:44:52.575Z,5.45
2019-04-14T09:47:20.855Z,5.31
2019-04-14T09:49:49.109Z,5.30
2019-04-14T09:52:17.389Z,5.21
2019-04-14T09:54:45.648Z,5.25
2019-04-14T09:57:13.931Z,5.28
2019-04-14T09:59:42.185Z,5.39
2019-04-14T10:02:10.461Z,5.39
2019-04-14T10:04:39.485Z,5.58
2019-04-14T10:07:07.779Z,5.88
2019-04-14T10:09:36.711Z,5.93
2019-04-14T10:12:04.988Z,6.19
2019-04-14T10:14:33.241Z,6.23
2019-04-14T10:17:02.090Z,6.22
2019-04-14T10:19:30.347Z,5.79
2019-04-14T10:21:58.634Z,5.41
2019-04-14T10:24:26.891Z,5.25
2019-04-14T10:26:55.165Z,5.34
2019-04-14T10:29:23.422Z,5.60
2019-04-14T10:31:51.705Z,6.02
2019-04-14T10:34:19.965Z,6.24
2019-04-14T10:36:48.248Z,6.30
2019-04-14T10:39:16.501Z,6.13
2019-04-14T10:41:44.781Z,5.66
2019-04-14T10:44:13.041Z,5.43
2019-04-14T10:46:41.324Z,5.20
2019-04-14T10:49:09.617Z,5.37
2019-04-14T10:51:37.904Z,5.36
2019-04-14T10:54:06.158Z,5.35
2019-04-14T10:56:34.436Z,5.19
2019-04-14T10:59:03.460Z,5.09
2019-04-14T11:01:31.745Z,5.12
2019-04-14T11:04:01.347Z,5.25
2019-04-14T11:06:33.985Z,5.21
2019-04-14T11:09:02.238Z,5.31
2019-04-14T11:11:31.268Z,5.49
2019-04-14T11:14:00.130Z,5.63
2019-04-14T11:16:28.382Z,5.67
2019-04-14T11:18:56.668Z,5.78
2019-04-14T11:21:24.924Z,5.78
2019-04-14T11:23:53.207Z,5.82
2019-04-14T11:26:22.235Z,5.73
2019-04-14T11:28:50.515Z,5.60
2019-04-14T11:31:20.421Z,5.69
2019-04-14T11:34:02.363Z,5.71
2019-04-14T11:36:48.189Z,5.77
2019-04-14T11:39:21.031Z,5.77
2019-04-14T11:41:49.665Z,5.88
2019-04-14T11:44:17.951Z,5.75
2019-04-14T11:46:46.248Z,5.84
2019-04-14T11:49:14.493Z,5.92
2019-04-14T11:51:54.408Z,6.23
2019-04-14T11:54:12.998Z,6.50
2019-04-14T11:56:42.513Z,6.34
2019-04-14T11:59:11.362Z,6.25
2019-04-14T12:01:57.554Z,6.27
2019-04-14T12:04:36.089Z,6.40
2019-04-14T12:07:20.809Z,6.43
2019-04-14T12:09:53.379Z,6.04
2019-04-14T12:12:21.659Z,5.83
2019-04-14T12:14:50.518Z,5.81
2019-04-14T12:17:18.773Z,5.74
2019-04-14T12:19:47.063Z,5.72
2019-04-14T12:22:15.319Z,5.63
2019-04-14T12:24:43.596Z,5.65
2019-04-14T12:27:11.859Z,5.52
2019-04-14T12:29:41.221Z,5.50
2019-04-14T12:32:10.692Z,5.74
2019-04-14T12:34:39.907Z,5.99
2019-04-14T12:37:08.475Z,5.97
2019-04-14T12:39:37.529Z,5.97
2019-04-14T12:42:07.417Z,5.77
2019-04-14T12:44:43.325Z,5.71
2019-04-14T12:47:22.021Z,5.61
2019-04-14T12:50:11.138Z,5.37
2019-04-14T12:52:39.392Z,5.15
2019-04-14T12:55:08.143Z,5.11
2019-04-14T12:57:38.043Z,5.09
2019-04-14T13:00:07.971Z,5.11
2019-04-14T13:02:38.038Z,5.19
2019-04-14T13:05:06.487Z,5.18
2019-04-14T13:07:36.881Z,5.12
2019-04-14T13:10:06.792Z,5.09
2019-04-14T13:12:34.414Z,5.11
2019-04-14T13:15:03.489Z,5.21
2019-04-14T13:17:31.747Z,5.33
2019-04-14T13:20:00.035Z,5.29
2019-04-14T13:22:34.043Z,5.23
2019-04-14T13:24:58.036Z,5.22
2019-04-14T13:27:26.303Z,5.11
2019-04-14T13:29:55.149Z,4.96
2019-04-14T13:32:35.411Z,4.87
2019-04-14T13:34:53.411Z,4.85
2019-04-14T13:37:21.666Z,4.85
2019-04-14T13:39:49.951Z,4.79
2019-04-14T13:42:18.213Z,4.61
2019-04-14T13:44:46.503Z,4.57
2019-04-14T13:47:14.753Z,4.64
2019-04-14T13:49:43.176Z,4.60
2019-04-14T13:52:12.805Z,4.71
2019-04-14T13:54:41.086Z,4.84
2019-04-14T13:57:09.350Z,4.84
2019-04-14T13:59:37.633Z,4.74
2019-04-14T14:02:05.890Z,4.68
2019-04-14T14:04:34.174Z,4.54
2019-04-14T14:07:02.429Z,4.47
2019-04-14T14:09:30.710Z,4.55
2019-04-14T14:12:01.180Z,4.54
2019-04-14T14:14:31.105Z,4.53
2019-04-14T14:17:00.999Z,4.59
2019-04-14T14:19:30.918Z,4.64
2019-04-14T14:22:06.555Z,4.48
2019-04-14T14:24:49.162Z,4.60
2019-04-14T14:27:17.464Z,4.53
2019-04-14T14:29:45.743Z,4.60
2019-04-14T14:32:18.076Z,4.61
2019-04-14T14:34:47.127Z,4.41
2019-04-14T14:37:16.054Z,4.35
2019-04-14T14:39:44.342Z,4.29
2019-04-14T14:42:12.594Z,4.21
2019-04-14T14:44:52.294Z,4.18
2019-04-14T14:47:22.199Z,4.19
2019-04-14T14:50:01.131Z,4.14
2019-04-14T14:52:29.385Z,4.19
2019-04-14T14:54:57.667Z,4.11
2019-04-14T14:57:25.928Z,4.12
2019-04-14T14:59:54.225Z,4.09
2019-04-14T15:02:22.549Z,4.07
2019-04-14T15:04:50.835Z,4.12
2019-04-14T15:07:19.097Z,3.98
2019-04-14T15:09:48.715Z,3.96
2019-04-14T15:12:16.981Z,3.96
2019-04-14T15:14:46.031Z,3.93
2019-04-14T15:17:14.287Z,4.02
2019-04-14T15:19:42.561Z,3.86
2019-04-14T15:22:10.827Z,3.81
2019-04-14T15:24:39.107Z,3.69
2019-04-14T15:27:08.036Z,3.58
2019-04-14T15:29:36.317Z,3.60
2019-04-14T15:32:04.574Z,3.67
2019-04-14T15:34:32.829Z,3.65
2019-04-14T15:37:01.114Z,3.50
2019-04-14T15:39:29.369Z,3.46
2019-04-14T15:41:58.418Z,3.52
2019-04-14T15:44:27.242Z,3.52
2019-04-14T15:46:56.092Z,3.59
2019-04-14T15:49:24.419Z,3.62
2019-04-14T15:51:52.702Z,3.70
2019-04-14T15:54:21.627Z,3.64
2019-04-14T15:57:03.522Z,3.64
2019-04-14T15:59:34.088Z,3.67
2019-04-14T16:02:20.173Z,3.69
2019-04-14T16:05:02.198Z,3.67
2019-04-14T16:07:44.044Z,3.60
2019-04-14T16:10:17.305Z,3.63
2019-04-14T16:12:52.645Z,3.68
2019-04-14T16:15:22.561Z,3.66
2019-04-14T16:17:52.459Z,3.59
2019-04-14T16:20:25.321Z,3.67
2019-04-14T16:22:53.581Z,3.66
2019-04-14T16:25:23.488Z,3.67
2019-04-14T16:27:55.833Z,3.74
2019-04-14T16:30:25.750Z,3.66
2019-04-14T16:33:12.309Z,3.68
2019-04-14T16:35:41.355Z,3.72
2019-04-14T16:38:10.173Z,3.65
2019-04-14T16:40:39.127Z,3.65
2019-04-14T16:43:07.734Z,3.60
2019-04-14T16:45:36.259Z,3.49
2019-04-14T16:48:04.581Z,3.48
2019-04-14T16:50:32.869Z,3.56
2019-04-14T16:53:14.862Z,3.54
2019-04-14T16:56:02.826Z,3.51
2019-04-14T16:58:35.413Z,3.52
2019-04-14T17:03:42.063Z,3.40
2019-04-14T17:06:10.332Z,3.44
2019-04-14T17:08:39.163Z,3.39
2019-04-14T17:11:07.443Z,3.42
2019-04-14T17:13:37.340Z,3.48
2019-04-14T17:16:22.360Z,3.52
2019-04-14T17:18:52.258Z,3.49
2019-04-14T17:21:39.161Z,3.44
2019-04-14T17:24:16.335Z,3.45
2019-04-14T17:26:49.535Z,3.46
2019-04-14T17:29:35.727Z,3.39
2019-04-14T17:32:05.646Z,3.46
2019-04-14T17:34:47.645Z,3.36
2019-04-14T17:37:23.322Z,3.39
2019-04-14T17:39:56.227Z,3.35
2019-04-14T17:42:26.149Z,3.29
2019-04-14T17:45:12.322Z,3.34
2019-04-14T17:47:42.805Z,3.37
2019-04-14T17:50:19.241Z,3.46
2019-04-14T17:52:55.098Z,3.39
2019-04-14T17:55:25.047Z,3.39
2019-04-14T17:57:55.088Z,3.42
2019-04-14T18:00:41.704Z,3.40
2019-04-14T18:03:14.594Z,3.45
2019-04-14T18:05:44.504Z,3.45
2019-04-14T18:08:26.607Z,3.50
2019-04-14T18:11:12.688Z,3.43
2019-04-14T18:13:48.524Z,3.55
2019-04-14T18:16:24.619Z,3.54
2019-04-14T18:19:06.583Z,3.60
2019-04-14T18:21:35.637Z,3.58
2019-04-14T18:24:04.067Z,3.45
2019-04-14T18:26:32.322Z,3.47
2019-04-14T18:29:18.564Z,3.44
2019-04-14T18:31:48.486Z,3.37
2019-04-14T18:34:21.121Z,3.36
2019-04-14T18:36:54.667Z,3.35
2019-04-14T18:39:40.437Z,3.41
2019-04-14T18:42:10.384Z,3.46
2019-04-14T18:44:46.121Z,3.40
2019-04-14T18:47:22.737Z,3.43
2019-04-14T18:50:02.409Z,3.50
2019-04-14T18:52:41.130Z,3.57
2019-04-14T18:55:29.046Z,3.51
2019-04-14T18:58:02.220Z,3.48
2019-04-14T19:00:38.337Z,3.46
2019-04-14T19:03:06.620Z,3.52
2019-04-14T19:05:34.880Z,3.45
2019-04-14T19:08:03.161Z,3.56
2019-04-14T19:10:31.417Z,3.57
2019-04-14T19:13:11.030Z,3.53
2019-04-14T19:15:44.077Z,3.60
2019-04-14T19:18:16.714Z,3.57
2019-04-14T19:20:47.181Z,3.60
2019-04-14T19:23:16.126Z,3.59
2019-04-14T19:25:44.382Z,3.64
2019-04-14T19:28:13.230Z,3.61
2019-04-14T19:30:41.493Z,3.65
2019-04-14T19:33:10.549Z,3.62
2019-04-14T19:35:38.801Z,3.60
2019-04-14T19:38:07.993Z,3.66
2019-04-14T19:40:36.245Z,3.72
2019-04-14T19:43:04.519Z,3.78
2019-04-14T19:45:32.785Z,3.85
2019-04-14T19:48:01.060Z,3.78
2019-04-14T19:50:29.314Z,3.67
2019-04-14T19:52:57.598Z,3.67
2019-04-14T19:55:25.849Z,3.62
2019-04-14T19:57:54.125Z,3.77
2019-04-14T20:00:22.452Z,3.74
2019-04-14T20:02:50.735Z,3.74
2019-04-14T20:05:19.000Z,3.71
2019-04-14T20:07:47.278Z,3.80
2019-04-14T20:10:15.540Z,3.81
2019-04-14T20:12:43.793Z,3.79
2019-04-14T20:15:13.709Z,3.79
2019-04-14T20:17:43.626Z,3.67
2019-04-14T20:20:29.834Z,3.76
2019-04-14T20:23:02.772Z,3.80
2019-04-14T20:25:41.118Z,3.82
2019-04-14T20:28:29.732Z,3.82
2019-04-14T20:30:59.631Z,3.79
2019-04-14T20:33:27.984Z,3.91
2019-04-14T20:35:56.241Z,3.80
2019-04-14T20:38:24.518Z,3.82
2019-04-14T20:40:52.780Z,3.74
2019-04-14T20:43:21.060Z,3.84
2019-04-14T20:45:49.318Z,3.94
2019-04-14T20:48:17.603Z,3.82
2019-04-14T20:50:45.931Z,3.87
2019-04-14T20:53:14.985Z,3.84
2019-04-14T20:55:47.177Z,3.87
2019-04-14T20:58:13.304Z,3.91
2019-04-14T21:00:41.582Z,3.95
2019-04-14T21:03:17.424Z,3.90
2019-04-14T21:05:47.345Z,3.94
2019-04-14T21:08:26.369Z,4.01
2019-04-14T21:11:05.541Z,3.94
2019-04-14T21:13:35.459Z,3.83
2019-04-14T21:16:12.510Z,3.91
2019-04-14T21:18:55.051Z,3.88
2019-04-14T21:21:41.169Z,3.82
2019-04-14T21:24:11.095Z,3.84
2019-04-14T21:26:56.002Z,3.83
2019-04-14T21:29:25.929Z,3.88
2019-04-14T21:31:55.831Z,3.82
2019-04-14T21:34:31.962Z,3.93
2019-04-14T21:37:02.635Z,3.92
2019-04-14T21:39:49.374Z,3.94
2019-04-14T21:42:18.408Z,3.88
2019-04-14T21:44:47.359Z,3.87
2019-04-14T21:47:15.619Z,3.83
2019-04-14T21:49:43.903Z,3.90
2019-04-14T21:52:13.799Z,3.95
2019-04-14T21:54:43.548Z,4.01
2019-04-14T21:57:13.453Z,3.94
2019-04-14T21:59:43.368Z,4.00
2019-04-14T22:02:29.198Z,3.98
2019-04-14T22:05:10.964Z,4.12
2019-04-14T22:07:40.863Z,4.14
2019-04-14T22:10:10.778Z,4.09
2019-04-14T22:12:39.319Z,4.00
2019-04-14T22:15:08.638Z,4.08
2019-04-14T22:17:36.900Z,4.03
2019-04-14T22:20:06.015Z,4.02
2019-04-14T22:22:35.047Z,4.05
2019-04-14T22:25:03.616Z,4.06
2019-04-14T22:27:31.859Z,4.01
2019-04-14T22:30:00.140Z,4.05
2019-04-14T22:32:28.408Z,4.11
2019-04-14T22:34:56.711Z,4.13
2019-04-14T22:37:25.629Z,4.12
2019-04-14T22:39:53.905Z,4.22
2019-04-14T22:42:22.155Z,4.32
2019-04-14T22:44:50.431Z,4.31
2019-04-14T22:47:18.700Z,4.20
2019-04-14T22:49:46.985Z,4.33
2019-04-14T22:52:15.317Z,4.34
2019-04-14T22:54:44.162Z,4.27
2019-04-14T22:57:13.186Z,4.24
2019-04-14T22:59:41.471Z,4.25
2019-04-14T23:02:14.012Z,4.28
2019-04-14T23:04:53.164Z,4.38
2019-04-14T23:07:29.173Z,4.29
2019-04-14T23:10:04.768Z,4.25
2019-04-14T23:12:40.716Z,4.29
2019-04-14T23:15:20.374Z,4.32
2019-04-14T23:18:02.651Z,4.37
2019-04-14T23:20:47.732Z,4.34
2019-04-14T23:23:23.886Z,4.41
2019-04-14T23:25:52.167Z,4.26
2019-04-14T23:28:20.432Z,4.28
2019-04-14T23:30:48.712Z,4.25
2019-04-14T23:33:17.806Z,4.44
2019-04-14T23:35:46.088Z,4.32
2019-04-14T23:38:14.341Z,4.27
2019-04-14T23:40:43.197Z,4.23
2019-04-14T23:43:11.615Z,4.28
2019-04-14T23:45:39.896Z,4.32
2019-04-14T23:48:09.003Z,4.24
2019-04-14T23:50:37.277Z,4.24
2019-04-14T23:53:05.537Z,4.28
2019-04-14T23:55:33.816Z,4.28
2019-04-14T23:58:02.076Z,4.30
